createdAt,value
2022-08-27T00:04:50.803Z,19.70
2022-08-27T00:09:50.071Z,19.70
2022-08-27T00:14:49.066Z,19.70
2022-08-27T00:19:47.783Z,19.60
2022-08-27T00:24:49.083Z,19.50
2022-08-27T00:29:47.805Z,19.50
2022-08-27T00:34:46.813Z,19.40
2022-08-27T00:39:45.941Z,19.30
2022-08-27T00:44:44.851Z,19.20
2022-08-27T00:49:43.949Z,19.20
2022-08-27T00:54:42.867Z,19.10
2022-08-27T00:59:41.973Z,19.00
2022-08-27T01:04:41.251Z,18.70
2022-08-27T01:09:40.371Z,18.70
2022-08-27T01:14:40.033Z,18.80
2022-08-27T01:19:38.793Z,18.80
2022-08-27T01:24:38.109Z,18.90
2022-08-27T01:29:37.525Z,19.00
2022-08-27T01:34:36.907Z,19.00
2022-08-27T01:39:36.094Z,19.00
2022-08-27T01:44:35.937Z,19.00
2022-08-27T01:49:35.010Z,19.10
2022-08-27T01:54:33.857Z,19.10
2022-08-27T01:59:39.711Z,19.20
2022-08-27T02:04:34.037Z,19.10
2022-08-27T02:09:33.194Z,19.10
2022-08-27T02:14:31.825Z,19.20
2022-08-27T02:19:31.008Z,19.20
2022-08-27T02:24:29.879Z,19.10
2022-08-27T02:29:29.140Z,19.10
2022-08-27T02:34:28.371Z,19.00
2022-08-27T02:39:26.939Z,19.00
2022-08-27T02:44:25.912Z,19.00
2022-08-27T02:49:25.111Z,19.00
2022-08-27T02:54:24.009Z,18.90
2022-08-27T02:59:24.849Z,18.90
2022-08-27T03:04:23.863Z,18.90
2022-08-27T03:09:22.959Z,18.90
2022-08-27T03:14:22.064Z,18.90
2022-08-27T03:19:21.656Z,19.00
2022-08-27T03:24:22.347Z,18.90
2022-08-27T03:29:21.964Z,19.00
2022-08-27T03:34:21.228Z,19.10
2022-08-27T03:39:19.980Z,19.10
2022-08-27T03:44:21.609Z,19.10
2022-08-27T03:49:20.514Z,19.10
2022-08-27T03:54:20.099Z,19.10
2022-08-27T03:59:19.783Z,19.10
2022-08-27T04:04:19.108Z,19.00
2022-08-27T04:09:17.920Z,18.90
2022-08-27T04:14:19.897Z,18.90
2022-08-27T04:19:18.776Z,18.90
2022-08-27T04:24:18.035Z,18.90
2022-08-27T04:29:16.996Z,18.90
2022-08-27T04:34:16.119Z,18.90
2022-08-27T04:39:15.020Z,19.00
2022-08-27T04:44:14.058Z,18.90
2022-08-27T04:49:13.635Z,18.90
2022-08-27T04:54:14.134Z,18.80
2022-08-27T04:59:13.028Z,18.80
2022-08-27T05:04:12.067Z,18.80
2022-08-27T05:09:11.020Z,18.80
2022-08-27T05:14:10.279Z,18.80
2022-08-27T05:19:09.132Z,18.70
2022-08-27T05:24:08.104Z,18.50
2022-08-27T05:29:07.056Z,18.40
2022-08-27T05:34:08.486Z,18.40
2022-08-27T05:39:07.452Z,18.40
2022-08-27T05:44:24.133Z,18.30
2022-08-27T05:49:07.043Z,18.30
2022-08-27T05:54:08.764Z,18.30
2022-08-27T05:59:25.291Z,18.20
2022-08-27T06:04:26.079Z,18.20
2022-08-27T06:09:25.403Z,18.20
2022-08-27T06:14:24.392Z,18.20
2022-08-27T06:19:23.116Z,18.10
2022-08-27T06:24:22.454Z,18.10
2022-08-27T06:29:23.239Z,18.20
2022-08-27T06:34:22.199Z,18.30
2022-08-27T06:39:21.293Z,18.30
2022-08-27T06:44:23.948Z,18.30
2022-08-27T06:49:23.923Z,18.20
2022-08-27T06:54:23.208Z,18.40
2022-08-27T06:59:22.174Z,18.40
2022-08-27T07:04:21.195Z,18.50
2022-08-27T07:09:21.323Z,18.70
2022-08-27T07:14:22.495Z,18.70
2022-08-27T07:19:21.037Z,18.80
2022-08-27T07:24:21.139Z,18.90
2022-08-27T07:29:20.125Z,19.10
2022-08-27T07:34:19.145Z,19.30
2022-08-27T07:39:18.162Z,19.50
2022-08-27T07:44:28.022Z,19.50
2022-08-27T07:49:28.052Z,19.40
2022-08-27T07:54:27.032Z,19.60
2022-08-27T07:59:26.769Z,19.90
2022-08-27T08:04:26.237Z,20.60
2022-08-27T08:09:25.254Z,20.90
2022-08-27T08:14:24.741Z,21.10
2022-08-27T08:19:24.673Z,21.40
2022-08-27T08:24:23.194Z,21.50
2022-08-27T08:29:22.189Z,21.60
2022-08-27T08:34:21.207Z,21.90
2022-08-27T08:39:20.216Z,22.30
2022-08-27T08:44:19.225Z,22.70
2022-08-27T08:49:18.138Z,22.80
2022-08-27T08:54:18.172Z,22.90
2022-08-27T08:59:18.593Z,23.10
2022-08-27T09:04:17.194Z,23.20
2022-08-27T09:09:16.109Z,23.50
2022-08-27T09:14:16.460Z,23.60
2022-08-27T09:19:15.389Z,23.70
2022-08-27T09:24:14.189Z,23.70
2022-08-27T09:29:16.084Z,23.40
2022-08-27T09:34:15.317Z,23.10
2022-08-27T09:39:17.361Z,22.80
2022-08-27T09:44:16.390Z,22.70
2022-08-27T09:49:16.084Z,22.50
2022-08-27T09:54:15.326Z,22.30
2022-08-27T09:59:14.545Z,22.20
2022-08-27T10:04:13.324Z,22.20
2022-08-27T10:09:12.174Z,22.20
2022-08-27T10:14:13.431Z,22.40
2022-08-27T10:19:12.331Z,22.70
2022-08-27T10:24:11.337Z,22.50
2022-08-27T10:29:10.249Z,22.40
2022-08-27T10:34:12.349Z,22.40
2022-08-27T10:39:11.441Z,22.60
2022-08-27T10:44:10.460Z,22.80
2022-08-27T10:49:09.469Z,22.90
2022-08-27T10:54:10.214Z,22.80
2022-08-27T10:59:09.329Z,22.70
2022-08-27T11:04:08.278Z,22.60
2022-08-27T11:09:07.887Z,22.80
2022-08-27T11:14:09.317Z,23.00
2022-08-27T11:19:08.590Z,23.40
2022-08-27T11:24:07.361Z,23.90
2022-08-27T11:29:07.297Z,24.40
2022-08-27T11:34:08.183Z,24.70
2022-08-27T11:39:07.835Z,24.40
2022-08-27T11:44:07.301Z,24.00
2022-08-27T11:49:06.409Z,23.80
2022-08-27T11:54:06.526Z,23.70
2022-08-27T11:59:05.462Z,23.80
2022-08-27T12:04:06.010Z,23.90
2022-08-27T12:09:06.343Z,24.30
2022-08-27T12:14:05.563Z,24.80
2022-08-27T12:19:04.803Z,24.60
2022-08-27T12:24:03.370Z,24.40
2022-08-27T12:29:02.749Z,24.90
2022-08-27T12:34:01.364Z,25.60
2022-08-27T12:39:02.223Z,26.20
2022-08-27T12:44:03.532Z,26.70
2022-08-27T12:49:12.757Z,26.70
2022-08-27T12:54:05.325Z,26.80
2022-08-27T12:59:05.147Z,26.80
2022-08-27T13:04:04.944Z,26.80
2022-08-27T13:09:04.563Z,26.60
2022-08-27T13:14:03.279Z,26.40
2022-08-27T13:19:02.651Z,25.80
2022-08-27T13:24:01.642Z,25.90
2022-08-27T13:29:03.513Z,26.00
2022-08-27T13:34:01.400Z,26.10
2022-08-27T13:39:00.500Z,26.20
2022-08-27T13:43:59.786Z,26.40
2022-08-27T13:48:58.906Z,26.60
2022-08-27T13:54:16.343Z,26.30
2022-08-27T13:59:15.305Z,26.00
2022-08-27T14:04:14.311Z,25.80
2022-08-27T14:09:14.124Z,25.60
2022-08-27T14:14:13.776Z,25.40
2022-08-27T14:19:12.588Z,25.40
2022-08-27T14:24:13.198Z,25.20
2022-08-27T14:29:12.604Z,24.90
2022-08-27T14:34:11.477Z,24.60
2022-08-27T14:39:10.475Z,24.40
2022-08-27T14:44:09.500Z,24.20
2022-08-27T14:49:08.793Z,24.00
2022-08-27T14:54:07.511Z,24.00
2022-08-27T14:59:07.110Z,24.10
2022-08-27T15:04:06.542Z,23.90
2022-08-27T15:09:06.069Z,23.90
2022-08-27T15:14:05.398Z,24.00
2022-08-27T15:19:06.483Z,24.00
2022-08-27T15:24:05.471Z,24.10
2022-08-27T15:29:06.737Z,24.20
2022-08-27T15:34:06.227Z,24.40
2022-08-27T15:39:05.671Z,24.50
2022-08-27T15:44:04.875Z,24.30
2022-08-27T15:49:03.766Z,24.10
2022-08-27T15:54:02.580Z,24.00
2022-08-27T15:59:01.649Z,23.90
2022-08-27T16:04:00.937Z,23.90
2022-08-27T16:08:59.743Z,23.70
2022-08-27T16:13:59.934Z,23.70
2022-08-27T16:18:58.897Z,23.60
2022-08-27T16:23:57.691Z,23.50
2022-08-27T16:28:56.697Z,23.40
2022-08-27T16:33:55.496Z,23.40
2022-08-27T16:38:57.591Z,23.40
2022-08-27T16:43:58.514Z,23.40
2022-08-27T16:49:15.979Z,23.30
2022-08-27T16:54:16.201Z,23.30
2022-08-27T16:59:16.048Z,23.20
2022-08-27T17:04:21.589Z,23.20
2022-08-27T17:09:15.745Z,23.10
2022-08-27T17:14:14.503Z,23.00
2022-08-27T17:19:17.102Z,22.80
2022-08-27T17:24:15.819Z,22.70
2022-08-27T17:29:14.831Z,22.60
2022-08-27T17:34:13.628Z,22.60
2022-08-27T17:39:12.925Z,22.60
2022-08-27T17:44:11.564Z,22.50
2022-08-27T17:49:10.595Z,22.50
2022-08-27T17:54:09.591Z,22.50
2022-08-27T17:59:08.615Z,22.50
2022-08-27T18:04:08.131Z,22.40
2022-08-27T18:09:08.159Z,22.40
2022-08-27T18:14:07.693Z,22.50
2022-08-27T18:19:07.087Z,22.40
2022-08-27T18:24:06.629Z,22.40
2022-08-27T18:29:05.562Z,22.40
2022-08-27T18:34:07.725Z,22.30
2022-08-27T18:39:06.654Z,22.20
2022-08-27T18:44:11.536Z,22.20
2022-08-27T18:49:07.284Z,22.10
2022-08-27T18:54:06.750Z,22.10
2022-08-27T18:59:06.479Z,22.00
2022-08-27T19:04:05.903Z,21.90
2022-08-27T19:09:04.598Z,21.90
2022-08-27T19:14:03.613Z,21.90
2022-08-27T19:19:02.689Z,21.90
2022-08-27T19:24:03.525Z,21.80
2022-08-27T19:29:02.748Z,21.80
2022-08-27T19:34:03.585Z,21.80
2022-08-27T19:39:03.044Z,21.80
2022-08-27T19:44:01.769Z,21.70
2022-08-27T19:49:03.755Z,21.80
2022-08-27T19:54:02.649Z,21.70
2022-08-27T19:59:14.513Z,21.70
2022-08-27T20:04:02.798Z,21.80
2022-08-27T20:09:03.813Z,21.90
2022-08-27T20:14:02.809Z,21.80
2022-08-27T20:19:02.309Z,21.80
2022-08-27T20:24:01.849Z,21.80
2022-08-27T20:29:00.866Z,21.80
2022-08-27T20:33:59.662Z,21.70
2022-08-27T20:38:58.665Z,21.70
2022-08-27T20:43:57.685Z,21.70
2022-08-27T20:48:56.974Z,21.70
2022-08-27T20:53:55.975Z,21.60
2022-08-27T20:59:12.868Z,21.60
2022-08-27T21:04:11.738Z,21.60
2022-08-27T21:09:10.762Z,21.60
2022-08-27T21:14:09.773Z,21.60
2022-08-27T21:19:08.788Z,21.50
2022-08-27T21:24:07.905Z,21.50
2022-08-27T21:29:06.796Z,21.40
2022-08-27T21:34:05.821Z,21.40
2022-08-27T21:39:04.737Z,21.40
2022-08-27T21:44:04.136Z,21.40
2022-08-27T21:49:04.899Z,21.40
2022-08-27T21:54:03.692Z,21.30
2022-08-27T21:59:03.729Z,21.30
2022-08-27T22:04:02.769Z,21.20
2022-08-27T22:09:01.766Z,21.20
2022-08-27T22:14:00.775Z,21.20
2022-08-27T22:18:59.788Z,21.10
2022-08-27T22:23:58.806Z,21.10
2022-08-27T22:28:57.810Z,21.20
2022-08-27T22:33:56.825Z,21.10
2022-08-27T22:38:59.659Z,21.10
2022-08-27T22:43:56.943Z,21.10
2022-08-27T22:48:57.125Z,21.10
2022-08-27T22:53:55.781Z,21.10
2022-08-27T22:58:54.764Z,21.00
2022-08-27T23:03:54.067Z,20.90
2022-08-27T23:08:53.801Z,20.90
2022-08-27T23:13:52.821Z,20.90
2022-08-27T23:18:51.805Z,20.80
2022-08-27T23:23:50.728Z,20.80
2022-08-27T23:28:49.813Z,20.80
2022-08-27T23:33:48.859Z,20.70
2022-08-27T23:38:47.859Z,20.60
2022-08-27T23:43:47.060Z,20.50
2022-08-27T23:48:45.874Z,20.50
2022-08-27T23:53:44.894Z,20.50
2022-08-27T23:58:45.203Z,20.50
